Time;durP1;ratioP1;P1;durP2;ratioP2;P2;SDS_P1;SDS_P2;PMS_P1;PMS_P2;Temp;Humidity;BMP_temperature;BMP_pressure;BME280_temperature;BME280_humidity;BME280_pressure;Samples;Min_cycle;Max_cycle;Signal;HPM_P1;HPM_P2
2023/08/27 15:25:36;;;;;;;6.32;3.22;;;;;;;;;;5110148;27;20437;-65
2023/08/27 15:28:04;;;;;;;5.97;2.85;;;;;;;;;;5110261;28;20042;-64
2023/08/27 15:30:32;;;;;;;6.78;2.90;;;;;;;;;;5110184;28;20040;-64
2023/08/27 15:32:59;;;;;;;4.20;3.08;;;;;;;;;;5109832;28;20134;-65
2023/08/27 15:35:27;;;;;;;5.43;2.90;;;;;;;;;;5109966;28;20048;-62
2023/08/27 15:37:54;;;;;;;4.43;2.85;;;;;;;;;;5108734;28;20138;-63
2023/08/27 15:40:22;;;;;;;6.13;3.28;;;;;;;;;;5108719;28;20089;-64
2023/08/27 15:43:11;;;;;;;8.45;3.40;;;;;;;;;;5109883;28;20459;-64
2023/08/27 15:45:39;;;;;;;3.45;2.70;;;;;;;;;;5109696;28;20047;-63
2023/08/27 15:48:07;;;;;;;7.43;3.70;;;;;;;;;;5109807;28;20063;-63
2023/08/27 15:50:34;;;;;;;6.93;3.63;;;;;;;;;;5109927;28;20070;-64
2023/08/27 15:53:02;;;;;;;9.30;4.85;;;;;;;;;;5091925;28;20562;-63
2023/08/27 15:55:30;;;;;;;5.75;2.88;;;;;;;;;;5110040;28;20392;-63
2023/08/27 15:57:57;;;;;;;6.43;3.20;;;;;;;;;;5109528;28;20473;-63
2023/08/27 16:00:25;;;;;;;8.40;4.40;;;;;;;;;;5109506;28;20066;-64
2023/08/27 16:02:53;;;;;;;5.13;3.42;;;;;;;;;;5109339;28;20028;-64
2023/08/27 16:05:21;;;;;;;5.88;3.00;;;;;;;;;;5109166;28;20050;-64
2023/08/27 16:07:48;;;;;;;5.45;3.33;;;;;;;;;;5108783;28;20035;-64
2023/08/27 16:10:16;;;;;;;7.03;3.33;;;;;;;;;;5109439;28;20043;-64
2023/08/27 16:12:43;;;;;;;4.25;2.67;;;;;;;;;;5109448;28;20032;-64
2023/08/27 16:15:11;;;;;;;7.18;3.03;;;;;;;;;;5109289;28;20400;-64
2023/08/27 16:17:38;;;;;;;4.60;3.00;;;;;;;;;;5109220;28;20040;-64
2023/08/27 16:20:06;;;;;;;6.85;2.95;;;;;;;;;;5109285;28;20048;-64
2023/08/27 16:22:33;;;;;;;7.47;3.30;;;;;;;;;;5109130;28;20039;-63
2023/08/27 16:25:01;;;;;;;8.95;3.00;;;;;;;;;;5103964;28;20080;-63
2023/08/27 16:27:28;;;;;;;5.50;3.47;;;;;;;;;;5095326;28;20389;-63
2023/08/27 16:29:57;;;;;;;7.18;3.55;;;;;;;;;;5094419;28;20068;-63
2023/08/27 16:32:25;;;;;;;5.00;2.88;;;;;;;;;;5095445;28;20432;-62
2023/08/27 16:34:52;;;;;;;5.30;2.95;;;;;;;;;;5095269;28;20042;-63
2023/08/27 16:37:20;;;;;;;7.93;3.22;;;;;;;;;;5095354;28;20044;-64
2023/08/27 16:39:47;;;;;;;6.43;3.10;;;;;;;;;;5095246;28;20044;-64
2023/08/27 16:42:15;;;;;;;10.57;3.63;;;;;;;;;;5095379;28;20032;-64
2023/08/27 16:44:43;;;;;;;5.45;3.25;;;;;;;;;;5095498;28;20048;-64
2023/08/27 16:47:10;;;;;;;4.45;3.22;;;;;;;;;;5095419;28;20040;-63
2023/08/27 16:49:38;;;;;;;7.20;3.40;;;;;;;;;;5095187;28;20489;-63
2023/08/27 16:52:08;;;;;;;4.03;3.00;;;;;;;;;;5094895;28;20044;-64
2023/08/27 16:54:35;;;;;;;7.10;3.00;;;;;;;;;;5094720;28;20040;-64
2023/08/27 16:57:03;;;;;;;5.47;3.13;;;;;;;;;;5095046;28;20038;-63
2023/08/27 16:59:30;;;;;;;5.40;3.10;;;;;;;;;;5094873;28;20040;-63
2023/08/27 17:01:58;;;;;;;7.07;3.05;;;;;;;;;;5094874;28;20040;-64
2023/08/27 17:04:26;;;;;;;6.55;3.55;;;;;;;;;;5094802;28;20046;-63
2023/08/27 17:06:54;;;;;;;6.07;3.20;;;;;;;;;;5076288;28;20131;-64
2023/08/27 17:09:21;;;;;;;8.68;3.80;;;;;;;;;;5094726;28;20105;-64
2023/08/27 17:11:48;;;;;;;16.10;4.68;;;;;;;;;;5094800;28;20032;-64
2023/08/27 17:14:16;;;;;;;13.15;3.92;;;;;;;;;;5093663;28;20072;-63
2023/08/27 17:16:43;;;;;;;11.98;5.88;;;;;;;;;;5094640;28;20040;-63
2023/08/27 17:19:11;;;;;;;11.80;7.15;;;;;;;;;;5094978;28;20054;-64
2023/08/27 17:21:38;;;;;;;15.57;10.60;;;;;;;;;;5094536;28;20043;-63
2023/08/27 17:24:06;;;;;;;20.17;11.70;;;;;;;;;;5094293;28;20055;-63
2023/08/27 17:26:34;;;;;;;18.70;12.35;;;;;;;;;;5094449;28;20037;-63
2023/08/27 17:29:01;;;;;;;16.65;10.73;;;;;;;;;;5094323;28;20042;-63
2023/08/27 17:31:29;;;;;;;16.85;10.18;;;;;;;;;;5094298;28;20040;-63
2023/08/27 17:33:56;;;;;;;14.63;9.82;;;;;;;;;;5093066;28;20396;-63
2023/08/27 17:36:24;;;;;;;11.07;5.38;;;;;;;;;;5093513;28;20040;-65
2023/08/27 17:38:51;;;;;;;8.93;5.20;;;;;;;;;;5094009;28;20039;-64
2023/08/27 17:41:19;;;;;;;11.40;4.82;;;;;;;;;;5094055;28;20040;-64
2023/08/27 17:43:46;;;;;;;15.85;4.88;;;;;;;;;;5093999;28;20051;-64
2023/08/27 17:46:14;;;;;;;14.63;5.57;;;;;;;;;;5094159;28;20036;-64
2023/08/27 17:48:41;;;;;;;9.75;4.03;;;;;;;;;;5093973;28;20040;-64
2023/08/27 17:51:08;;;;;;;12.18;4.40;;;;;;;;;;5093965;28;20102;-64
2023/08/27 17:53:36;;;;;;;8.70;3.50;;;;;;;;;;5093951;28;20073;-63
2023/08/27 17:56:04;;;;;;;6.55;3.85;;;;;;;;;;5093961;28;20044;-63
2023/08/27 17:58:31;;;;;;;10.23;3.33;;;;;;;;;;5093520;28;20044;-63
2023/08/27 18:00:58;;;;;;;5.75;3.17;;;;;;;;;;5093768;28;20051;-63
2023/08/27 18:03:28;;;;;;;6.97;3.42;;;;;;;;;;5093589;28;20477;-63
2023/08/27 18:05:56;;;;;;;7.70;3.78;;;;;;;;;;5093423;28;20044;-64
2023/08/27 18:08:23;;;;;;;8.50;3.83;;;;;;;;;;5093545;28;20086;-64
2023/08/27 18:10:51;;;;;;;10.25;4.07;;;;;;;;;;5093469;28;20040;-64
2023/08/27 18:13:18;;;;;;;12.77;4.78;;;;;;;;;;5092297;28;20044;-64
2023/08/27 18:15:46;;;;;;;10.95;4.57;;;;;;;;;;5093612;28;20032;-64
2023/08/27 18:18:14;;;;;;;6.88;3.80;;;;;;;;;;5093502;28;20393;-64
2023/08/27 18:20:41;;;;;;;5.57;3.05;;;;;;;;;;5093388;28;20113;-64
2023/08/27 18:23:09;;;;;;;6.50;3.67;;;;;;;;;;5093585;28;20423;-65
2023/08/27 18:25:36;;;;;;;9.57;3.38;;;;;;;;;;5091388;28;20040;-62
2023/08/27 18:28:04;;;;;;;7.72;3.42;;;;;;;;;;5092792;28;20040;-64
2023/08/27 18:30:31;;;;;;;7.55;3.10;;;;;;;;;;5090804;28;20039;-65
2023/08/27 18:33:01;;;;;;;9.35;3.30;;;;;;;;;;5092488;28;20070;-64
2023/08/27 18:35:29;;;;;;;5.82;4.07;;;;;;;;;;5092777;28;20093;-63
2023/08/27 18:38:00;;;;;;;6.65;3.53;;;;;;;;;;5092690;28;20059;-64
2023/08/27 18:40:28;;;;;;;10.90;4.47;;;;;;;;;;5093167;28;20076;-63
2023/08/27 18:42:56;;;;;;;8.85;5.03;;;;;;;;;;5093076;28;20074;-64
2023/08/27 18:45:23;;;;;;;11.93;5.30;;;;;;;;;;5092807;28;20044;-64
2023/08/27 18:47:51;;;;;;;11.85;6.20;;;;;;;;;;5090981;28;20040;-65
2023/08/27 18:50:18;;;;;;;13.20;5.60;;;;;;;;;;5091321;28;20044;-64
2023/08/27 18:52:46;;;;;;;9.27;6.22;;;;;;;;;;5092384;28;20435;-64
2023/08/27 18:55:14;;;;;;;11.93;7.10;;;;;;;;;;5089616;28;20048;-63
2023/08/27 18:57:41;;;;;;;10.32;6.50;;;;;;;;;;5092242;28;20040;-63
2023/08/27 19:00:09;;;;;;;11.27;6.95;;;;;;;;;;5092203;28;20119;-64
2023/08/27 19:02:36;;;;;;;11.27;6.75;;;;;;;;;;5092230;28;20035;-69
2023/08/27 19:05:04;;;;;;;11.57;6.32;;;;;;;;;;5092634;28;20147;-67
2023/08/27 19:07:31;;;;;;;13.32;6.18;;;;;;;;;;5091484;28;20079;-68
2023/08/27 19:09:59;;;;;;;11.23;5.80;;;;;;;;;;5092595;28;20128;-68
2023/08/27 19:12:28;;;;;;;11.25;5.90;;;;;;;;;;5092830;28;20083;-67
2023/08/27 19:14:56;;;;;;;9.23;5.65;;;;;;;;;;5092492;28;20055;-67
2023/08/27 19:17:23;;;;;;;9.05;5.72;;;;;;;;;;5092375;28;20062;-67
2023/08/27 19:19:54;;;;;;;10.77;5.32;;;;;;;;;;5092520;28;20489;-66
2023/08/27 19:22:22;;;;;;;9.57;5.15;;;;;;;;;;5091915;28;20040;-66
2023/08/27 19:24:49;;;;;;;6.85;4.45;;;;;;;;;;5092195;28;20048;-66
2023/08/27 19:27:17;;;;;;;6.05;4.30;;;;;;;;;;5092451;28;20058;-66
2023/08/27 19:29:44;;;;;;;7.55;4.20;;;;;;;;;;5092399;28;20538;-67
2023/08/27 19:32:12;;;;;;;7.18;3.67;;;;;;;;;;5092420;28;20040;-66
2023/08/27 19:34:39;;;;;;;5.90;3.40;;;;;;;;;;5092206;28;20052;-67
2023/08/27 19:37:07;;;;;;;6.03;3.40;;;;;;;;;;5092276;28;20040;-66
2023/08/27 19:39:34;;;;;;;6.18;3.33;;;;;;;;;;5092328;28;20046;-67
2023/08/27 19:42:02;;;;;;;6.95;3.30;;;;;;;;;;5092259;28;20044;-67
2023/08/27 19:44:29;;;;;;;9.43;4.00;;;;;;;;;;5091973;28;20044;-66
2023/08/27 19:46:57;;;;;;;8.35;3.65;;;;;;;;;;5092387;28;20048;-67
2023/08/27 19:49:24;;;;;;;7.10;3.90;;;;;;;;;;5092421;28;20032;-66
2023/08/27 19:51:52;;;;;;;5.97;3.63;;;;;;;;;;5092338;28;20040;-66
2023/08/27 19:54:19;;;;;;;6.47;3.72;;;;;;;;;;5092159;28;20520;-66
2023/08/27 19:56:47;;;;;;;6.05;3.90;;;;;;;;;;5092327;28;20040;-66
2023/08/27 19:59:16;;;;;;;13.15;4.35;;;;;;;;;;5092419;28;20036;-66
2023/08/27 20:01:44;;;;;;;5.57;4.22;;;;;;;;;;5095584;28;20058;-66
2023/08/27 20:04:15;;;;;;;8.65;4.00;;;;;;;;;;5095925;28;20090;-66
2023/08/27 20:06:42;;;;;;;8.63;4.30;;;;;;;;;;5096036;28;20044;-66
2023/08/27 20:09:10;;;;;;;7.80;4.20;;;;;;;;;;5095875;28;20533;-66
2023/08/27 20:11:39;;;;;;;8.32;3.78;;;;;;;;;;5095975;28;20040;-66
2023/08/27 20:14:06;;;;;;;6.60;4.25;;;;;;;;;;5095894;28;20038;-66
2023/08/27 20:16:34;;;;;;;6.90;3.83;;;;;;;;;;5095818;28;20040;-66
2023/08/27 20:19:01;;;;;;;7.70;3.80;;;;;;;;;;5095970;28;20085;-66
2023/08/27 20:21:29;;;;;;;4.93;3.80;;;;;;;;;;5095677;28;20036;-66
2023/08/27 20:23:56;;;;;;;7.13;4.10;;;;;;;;;;5095545;28;20055;-66
2023/08/27 20:26:24;;;;;;;5.18;3.60;;;;;;;;;;5095607;28;20044;-66
2023/08/27 20:28:51;;;;;;;6.30;3.55;;;;;;;;;;5095624;28;20036;-66
2023/08/27 20:31:19;;;;;;;5.40;3.67;;;;;;;;;;5094511;28;20500;-66
2023/08/27 20:33:46;;;;;;;6.50;3.47;;;;;;;;;;5095474;28;20050;-66
2023/08/27 20:36:14;;;;;;;6.05;3.25;;;;;;;;;;5095451;28;20040;-65
2023/08/27 20:38:41;;;;;;;8.15;3.85;;;;;;;;;;5094047;28;20036;-66
2023/08/27 20:41:09;;;;;;;10.40;3.78;;;;;;;;;;5095375;28;20115;-65
2023/08/27 20:43:38;;;;;;;6.65;3.75;;;;;;;;;;5095242;28;20040;-65
2023/08/27 20:46:06;;;;;;;6.47;3.80;;;;;;;;;;5095071;28;20048;-65
2023/08/27 20:48:34;;;;;;;6.90;3.70;;;;;;;;;;5095094;28;20438;-64
2023/08/27 20:51:02;;;;;;;5.43;3.50;;;;;;;;;;5093906;28;20095;-65
2023/08/27 20:53:30;;;;;;;8.30;4.07;;;;;;;;;;5093755;28;20493;-65
2023/08/27 20:55:57;;;;;;;5.45;3.58;;;;;;;;;;5095089;28;20040;-65
2023/08/27 20:58:25;;;;;;;6.13;4.07;;;;;;;;;;5095045;28;20040;-64
2023/08/27 21:00:52;;;;;;;5.82;3.90;;;;;;;;;;5094930;28;20485;-64
2023/08/27 21:03:20;;;;;;;7.80;3.90;;;;;;;;;;5094795;28;20040;-64
2023/08/27 21:05:47;;;;;;;6.82;3.90;;;;;;;;;;5094719;28;20059;-64
2023/08/27 21:08:15;;;;;;;8.13;4.03;;;;;;;;;;5076863;28;20033;-65
2023/08/27 21:10:42;;;;;;;6.53;3.88;;;;;;;;;;5094593;28;20549;-65
2023/08/27 21:13:10;;;;;;;6.35;3.80;;;;;;;;;;5094720;28;20040;-64
2023/08/27 21:15:38;;;;;;;8.80;3.90;;;;;;;;;;5094282;28;20048;-64
2023/08/27 21:18:07;;;;;;;7.32;3.88;;;;;;;;;;5094451;28;20551;-64
2023/08/27 21:20:34;;;;;;;7.50;4.03;;;;;;;;;;5094410;28;20442;-64
2023/08/27 21:23:02;;;;;;;7.68;3.97;;;;;;;;;;5094379;28;20499;-64
2023/08/27 21:25:30;;;;;;;6.60;4.55;;;;;;;;;;5094147;28;20400;-65
2023/08/27 21:27:58;;;;;;;7.18;4.32;;;;;;;;;;5094375;28;20071;-65
2023/08/27 21:30:25;;;;;;;7.63;4.25;;;;;;;;;;5094284;28;20101;-65
2023/08/27 21:32:53;;;;;;;9.32;4.43;;;;;;;;;;5094276;28;20048;-65
2023/08/27 21:35:20;;;;;;;9.23;4.43;;;;;;;;;;5094464;28;20047;-66
2023/08/27 21:37:48;;;;;;;8.05;4.18;;;;;;;;;;5094115;28;20034;-65
2023/08/27 21:40:15;;;;;;;8.52;4.38;;;;;;;;;;5094373;28;20433;-65
2023/08/27 21:42:43;;;;;;;8.27;4.30;;;;;;;;;;5092920;28;20119;-65
2023/08/27 21:45:10;;;;;;;5.45;4.20;;;;;;;;;;5094051;28;20123;-65
2023/08/27 21:47:38;;;;;;;9.75;4.40;;;;;;;;;;5093963;28;20044;-65
2023/08/27 21:50:06;;;;;;;5.40;4.07;;;;;;;;;;5094080;28;20131;-65
2023/08/27 21:52:33;;;;;;;7.30;4.13;;;;;;;;;;5093736;28;20048;-65
2023/08/27 21:55:01;;;;;;;6.97;4.60;;;;;;;;;;5092506;28;20040;-65
2023/08/27 21:57:28;;;;;;;7.78;4.40;;;;;;;;;;5093762;28;20489;-65
2023/08/27 21:59:56;;;;;;;8.45;4.97;;;;;;;;;;5093630;28;20051;-65
2023/08/27 22:02:23;;;;;;;8.13;4.47;;;;;;;;;;5093664;28;20047;-65
2023/08/27 22:04:51;;;;;;;9.02;4.45;;;;;;;;;;5092485;28;20055;-66
2023/08/27 22:07:19;;;;;;;6.63;4.25;;;;;;;;;;5059283;28;20036;-65
2023/08/27 22:09:49;;;;;;;7.93;4.30;;;;;;;;;;5093790;28;20127;-65
2023/08/27 22:12:17;;;;;;;9.38;4.38;;;;;;;;;;5093473;28;20028;-65
2023/08/27 22:14:45;;;;;;;7.93;4.63;;;;;;;;;;5091813;28;20041;-65
2023/08/27 22:17:12;;;;;;;7.07;4.45;;;;;;;;;;5092364;28;20524;-65
2023/08/27 22:19:40;;;;;;;8.10;5.10;;;;;;;;;;5093310;28;20036;-65
2023/08/27 22:22:10;;;;;;;7.60;4.70;;;;;;;;;;5093407;28;20051;-65
2023/08/27 22:24:38;;;;;;;6.50;4.45;;;;;;;;;;5092640;28;20116;-65
2023/08/27 22:27:05;;;;;;;8.40;4.60;;;;;;;;;;5093200;28;20047;-65
2023/08/27 22:29:33;;;;;;;9.43;4.45;;;;;;;;;;5093158;28;20093;-65
2023/08/27 22:32:00;;;;;;;9.27;4.97;;;;;;;;;;5093131;28;20501;-65
2023/08/27 22:34:28;;;;;;;7.03;4.93;;;;;;;;;;5093114;28;20043;-65
2023/08/27 22:36:55;;;;;;;7.60;4.32;;;;;;;;;;5092972;28;20040;-65
2023/08/27 22:39:23;;;;;;;7.28;4.75;;;;;;;;;;5093242;28;20394;-65
2023/08/27 22:41:50;;;;;;;8.95;4.57;;;;;;;;;;5093136;28;20040;-65
2023/08/27 22:44:18;;;;;;;6.88;4.50;;;;;;;;;;5092777;28;20078;-65
2023/08/27 22:46:45;;;;;;;7.75;4.53;;;;;;;;;;5092984;28;20035;-65
2023/08/27 22:49:14;;;;;;;7.95;4.60;;;;;;;;;;5091697;28;20113;-65
2023/08/27 22:51:42;;;;;;;7.22;4.70;;;;;;;;;;5092845;28;20044;-65
2023/08/27 22:54:09;;;;;;;5.95;4.57;;;;;;;;;;5092899;28;20580;-65
2023/08/27 22:56:37;;;;;;;7.65;5.00;;;;;;;;;;5092774;28;20481;-65
2023/08/27 22:59:04;;;;;;;8.93;4.90;;;;;;;;;;5091589;28;20036;-63
2023/08/27 23:01:32;;;;;;;9.55;4.55;;;;;;;;;;5092652;28;20044;-64
2023/08/27 23:03:59;;;;;;;8.30;4.90;;;;;;;;;;5092635;28;20402;-65
2023/08/27 23:06:28;;;;;;;10.52;5.35;;;;;;;;;;5092543;28;20039;-65
2023/08/27 23:08:57;;;;;;;7.03;4.70;;;;;;;;;;5092621;28;20505;-65
2023/08/27 23:11:24;;;;;;;9.60;5.03;;;;;;;;;;5092624;28;20044;-66
2023/08/27 23:13:52;;;;;;;10.20;4.45;;;;;;;;;;5092690;28;20034;-66
2023/08/27 23:16:19;;;;;;;7.88;5.07;;;;;;;;;;5092184;28;20036;-65
2023/08/27 23:18:47;;;;;;;8.75;4.57;;;;;;;;;;5091378;28;20036;-65
2023/08/27 23:21:14;;;;;;;8.80;4.93;;;;;;;;;;5092443;28;20055;-63
2023/08/27 23:23:42;;;;;;;6.38;4.68;;;;;;;;;;5092319;28;20075;-66
2023/08/27 23:26:09;;;;;;;7.93;4.75;;;;;;;;;;5092520;28;20036;-65
2023/08/27 23:28:37;;;;;;;9.35;5.00;;;;;;;;;;5092437;28;20068;-65
2023/08/27 23:31:04;;;;;;;8.38;5.15;;;;;;;;;;5092280;28;20099;-66
2023/08/27 23:33:32;;;;;;;6.75;4.70;;;;;;;;;;5092489;28;20044;-63
2023/08/27 23:35:59;;;;;;;7.63;4.78;;;;;;;;;;5094589;28;20036;-63
2023/08/27 23:38:26;;;;;;;8.38;4.88;;;;;;;;;;5096283;28;20109;-63
2023/08/27 23:40:55;;;;;;;6.88;4.97;;;;;;;;;;5096466;28;20044;-63
2023/08/27 23:43:23;;;;;;;8.55;5.05;;;;;;;;;;5096330;28;20113;-63
2023/08/27 23:45:50;;;;;;;9.13;4.53;;;;;;;;;;5096291;28;20055;-63
2023/08/27 23:48:18;;;;;;;8.75;4.28;;;;;;;;;;5096358;28;20359;-64
2023/08/27 23:50:45;;;;;;;9.18;4.70;;;;;;;;;;5096140;28;20062;-63
2023/08/27 23:53:13;;;;;;;7.82;4.70;;;;;;;;;;5096200;28;20558;-65
2023/08/27 23:55:40;;;;;;;8.27;4.90;;;;;;;;;;5095971;28;20090;-65
2023/08/27 23:58:08;;;;;;;7.70;4.63;;;;;;;;;;5096139;28;20122;-65
